Time;durP1;ratioP1;P1;durP2;ratioP2;P2;SDS_P1;SDS_P2;PMS_P1;PMS_P2;Temp;Humidity;BMP_temperature;BMP_pressure;BME280_temperature;BME280_humidity;BME280_pressure;Samples;Min_cycle;Max_cycle;Signal;HPM_P1;HPM_P2
2021/09/17 00:00:28;;;;;;;10.75;5.60;;;15.00;99.90;;;;;;5075965;28;20108;-72
2021/09/17 00:02:55;;;;;;;8.95;4.20;;;15.10;99.90;;;;;;5075327;28;20056;-71
2021/09/17 00:05:21;;;;;;;9.10;4.25;;;15.00;99.90;;;;;;5075624;28;20032;-72
2021/09/17 00:07:47;;;;;;;7.35;4.60;;;15.00;99.90;;;;;;5075938;28;20656;-72
2021/09/17 00:10:13;;;;;;;11.15;5.40;;;15.00;99.90;;;;;;5075612;28;20032;-71
2021/09/17 00:12:42;;;;;;;7.80;4.95;;;14.90;99.90;;;;;;5074324;28;20041;-72
2021/09/17 00:15:10;;;;;;;7.97;5.40;;;14.90;99.90;;;;;;5074166;28;20103;-72
2021/09/17 00:17:37;;;;;;;7.28;4.75;;;14.90;99.90;;;;;;5074074;28;20439;-72
2021/09/17 00:20:05;;;;;;;6.30;3.95;;;15.00;99.90;;;;;;5074205;28;20027;-71
2021/09/17 00:22:31;;;;;;;5.68;4.10;;;15.00;99.90;;;;;;5074091;28;20032;-71
2021/09/17 00:24:57;;;;;;;5.90;4.38;;;15.00;99.90;;;;;;5074468;28;20048;-71
2021/09/17 00:27:23;;;;;;;6.25;4.18;;;15.00;99.90;;;;;;5075084;28;20025;-71
2021/09/17 00:29:49;;;;;;;5.95;4.43;;;15.10;99.90;;;;;;5074246;28;20032;-71
2021/09/17 00:32:14;;;;;;;5.82;4.32;;;15.10;99.90;;;;;;5075335;28;20032;-71
2021/09/17 00:34:40;;;;;;;6.90;4.10;;;15.20;99.90;;;;;;5073821;28;20078;-72
2021/09/17 00:37:06;;;;;;;7.88;4.35;;;15.20;99.90;;;;;;5074953;28;20054;-71
2021/09/17 00:39:32;;;;;;;5.43;4.07;;;15.20;99.90;;;;;;5073642;28;20473;-71
2021/09/17 00:41:58;;;;;;;6.13;4.30;;;15.00;99.90;;;;;;5073838;28;20055;-71
2021/09/17 00:44:27;;;;;;;6.97;3.95;;;14.90;99.90;;;;;;5074893;28;20035;-71
2021/09/17 00:46:54;;;;;;;6.85;4.00;;;14.80;99.90;;;;;;5074844;28;20405;-71
2021/09/17 00:49:21;;;;;;;5.00;3.60;;;14.80;99.90;;;;;;5074821;28;20358;-71
2021/09/17 00:51:48;;;;;;;7.00;4.00;;;14.80;99.90;;;;;;5074795;28;20062;-71
2021/09/17 00:54:15;;;;;;;6.78;4.38;;;14.80;99.90;;;;;;5073833;28;20086;-71
2021/09/17 00:56:43;;;;;;;12.55;5.82;;;14.70;99.90;;;;;;5074523;28;20040;-71
2021/09/17 00:59:09;;;;;;;6.22;4.03;;;14.70;99.90;;;;;;5073518;28;20032;-71
2021/09/17 01:01:36;;;;;;;6.22;3.92;;;14.80;99.90;;;;;;5073429;28;20044;-72
2021/09/17 01:04:03;;;;;;;25.38;16.33;;;14.90;99.90;;;;;;5074455;28;20051;-72
2021/09/17 01:06:29;;;;;;;32.67;18.85;;;15.00;99.90;;;;;;5073205;28;20059;-71
2021/09/17 01:08:56;;;;;;;10.05;4.57;;;14.70;99.90;;;;;;5073284;28;20035;-72
2021/09/17 01:11:23;;;;;;;5.68;4.00;;;14.50;99.90;;;;;;5056654;28;20055;-71
2021/09/17 01:13:49;;;;;;;4.47;3.47;;;14.40;99.90;;;;;;5073539;28;20047;-71
2021/09/17 01:16:14;;;;;;;7.22;4.07;;;14.30;99.90;;;;;;5073038;28;20036;-71
2021/09/17 01:18:40;;;;;;;9.43;4.90;;;14.30;99.90;;;;;;5074092;28;20041;-71
2021/09/17 01:21:06;;;;;;;5.72;4.35;;;14.30;99.90;;;;;;5074356;28;20032;-71
2021/09/17 01:23:31;;;;;;;5.85;4.03;;;14.20;99.90;;;;;;5072926;28;20528;-71
2021/09/17 01:25:57;;;;;;;7.75;4.45;;;14.20;99.90;;;;;;5072963;28;20029;-71
2021/09/17 01:28:27;;;;;;;7.10;4.32;;;14.20;99.90;;;;;;5074067;28;20035;-71
2021/09/17 01:30:53;;;;;;;6.78;3.92;;;14.20;99.90;;;;;;5072947;28;20055;-72
2021/09/17 01:33:19;;;;;;;6.47;3.78;;;14.00;99.90;;;;;;5074016;28;20032;-71
2021/09/17 01:35:44;;;;;;;5.25;3.38;;;13.90;99.90;;;;;;5072772;28;20024;-71
2021/09/17 01:38:11;;;;;;;9.63;3.42;;;13.80;99.90;;;;;;5089632;28;20457;-72
2021/09/17 01:40:37;;;;;;;6.60;3.72;;;13.80;99.90;;;;;;5073791;28;20039;-71
2021/09/17 01:43:03;;;;;;;5.93;3.50;;;13.80;99.90;;;;;;5073951;28;20036;-72
2021/09/17 01:45:29;;;;;;;11.38;4.13;;;13.70;99.90;;;;;;5072721;28;20032;-72
2021/09/17 01:47:55;;;;;;;6.95;4.10;;;13.80;99.90;;;;;;5073761;28;20634;-72
2021/09/17 01:50:21;;;;;;;6.13;4.07;;;13.90;99.90;;;;;;5072912;28;20035;-71
2021/09/17 01:52:47;;;;;;;7.68;4.50;;;13.70;99.90;;;;;;5072410;28;20032;-71
2021/09/17 01:55:13;;;;;;;6.38;4.07;;;13.80;99.90;;;;;;5072455;28;20031;-72
2021/09/17 01:57:39;;;;;;;7.05;4.35;;;13.70;99.90;;;;;;5073386;28;20048;-72
2021/09/17 02:00:10;;;;;;;5.93;4.10;;;13.70;99.90;;;;;;5072334;28;20393;-73
2021/09/17 02:02:36;;;;;;;7.38;5.13;;;13.80;99.90;;;;;;5073540;28;20037;-72
2021/09/17 02:05:03;;;;;;;7.97;5.20;;;13.90;99.90;;;;;;5072501;28;20025;-72
2021/09/17 02:07:29;;;;;;;5.22;4.10;;;13.90;99.90;;;;;;5055463;28;20029;-72
2021/09/17 02:09:54;;;;;;;5.95;4.20;;;13.90;99.90;;;;;;5073093;28;20029;-72
2021/09/17 02:12:20;;;;;;;6.78;4.70;;;13.70;99.90;;;;;;5073447;28;20029;-72
2021/09/17 02:14:46;;;;;;;7.80;5.13;;;13.50;99.90;;;;;;5073183;28;20040;-72
2021/09/17 02:17:12;;;;;;;12.82;4.72;;;13.40;99.90;;;;;;5073048;28;20049;-72
2021/09/17 02:19:37;;;;;;;6.32;4.95;;;13.50;99.90;;;;;;5073030;28;20106;-72
2021/09/17 02:22:04;;;;;;;6.70;5.18;;;13.40;99.90;;;;;;5073369;28;20033;-72
2021/09/17 02:24:29;;;;;;;7.28;5.45;;;13.40;99.90;;;;;;5071716;28;20052;-72
2021/09/17 02:26:55;;;;;;;9.20;4.72;;;13.30;99.90;;;;;;5073333;28;20074;-72
2021/09/17 02:29:21;;;;;;;7.28;4.57;;;13.50;99.90;;;;;;5071697;28;20603;-72
2021/09/17 02:31:46;;;;;;;6.93;4.60;;;13.60;99.90;;;;;;5072806;28;20045;-72
2021/09/17 02:34:12;;;;;;;7.30;4.88;;;13.70;99.90;;;;;;5071426;28;20039;-72
2021/09/17 02:36:38;;;;;;;6.15;4.13;;;13.60;99.90;;;;;;5072655;28;20028;-72
2021/09/17 02:39:05;;;;;;;21.77;6.05;;;13.60;99.90;;;;;;5071356;28;20036;-72
2021/09/17 02:41:31;;;;;;;9.88;4.32;;;13.30;99.90;;;;;;5072763;28;20427;-72
2021/09/17 02:43:56;;;;;;;6.68;4.78;;;13.10;99.90;;;;;;5071909;28;20046;-72
2021/09/17 02:46:22;;;;;;;7.20;5.13;;;13.10;99.90;;;;;;5072732;28;20389;-72
2021/09/17 02:48:48;;;;;;;6.38;4.82;;;13.20;99.90;;;;;;5072573;28;20161;-72
2021/09/17 02:51:13;;;;;;;12.35;5.60;;;13.20;99.90;;;;;;5072595;28;20119;-72
2021/09/17 02:53:39;;;;;;;7.55;6.10;;;13.20;99.90;;;;;;5072512;28;20444;-72
2021/09/17 02:56:05;;;;;;;9.85;5.72;;;13.20;99.90;;;;;;5072468;28;20575;-72
2021/09/17 02:58:31;;;;;;;10.07;6.00;;;13.30;99.90;;;;;;5072295;28;20728;-72
2021/09/17 03:00:57;;;;;;;10.00;6.20;;;13.40;99.90;;;;;;5072595;28;20032;-72
2021/09/17 03:03:22;;;;;;;10.30;6.25;;;13.50;99.90;;;;;;5072466;28;20032;-72
2021/09/17 03:05:48;;;;;;;15.68;6.60;;;13.70;99.90;;;;;;5070914;28;20043;-72
2021/09/17 03:08:14;;;;;;;8.30;6.90;;;13.60;99.90;;;;;;5088131;28;20122;-72
2021/09/17 03:10:40;;;;;;;13.25;6.38;;;13.50;99.90;;;;;;5071248;28;20115;-72
2021/09/17 03:13:06;;;;;;;10.73;6.85;;;13.60;99.90;;;;;;5072656;28;20078;-72
2021/09/17 03:15:32;;;;;;;8.60;6.68;;;13.70;99.90;;;;;;5070717;28;20048;-72
2021/09/17 03:17:57;;;;;;;8.60;6.93;;;13.80;99.90;;;;;;5054298;28;20489;-72
2021/09/17 03:20:23;;;;;;;9.27;6.63;;;13.90;99.90;;;;;;5072122;28;20031;-72
2021/09/17 03:22:49;;;;;;;8.88;6.18;;;13.80;99.90;;;;;;5071540;28;20029;-72
2021/09/17 03:25:15;;;;;;;9.15;6.25;;;13.70;99.90;;;;;;5072409;28;20032;-72
2021/09/17 03:27:41;;;;;;;10.13;7.05;;;13.70;99.90;;;;;;5070801;28;20504;-72
2021/09/17 03:30:08;;;;;;;10.27;6.50;;;13.80;99.90;;;;;;5070773;28;20036;-72
2021/09/17 03:32:34;;;;;;;10.63;6.80;;;13.80;99.90;;;;;;5071863;28;20036;-71
2021/09/17 03:34:59;;;;;;;9.70;7.43;;;13.80;99.90;;;;;;5072233;28;20032;-72
2021/09/17 03:37:25;;;;;;;11.32;7.00;;;13.70;99.90;;;;;;5070856;28;20055;-72
2021/09/17 03:39:51;;;;;;;9.77;6.20;;;13.80;99.90;;;;;;5072134;28;20666;-72
2021/09/17 03:42:17;;;;;;;9.57;5.97;;;13.80;99.90;;;;;;5070734;28;20036;-72
2021/09/17 03:44:42;;;;;;;9.65;7.32;;;14.00;99.90;;;;;;5072118;28;20028;-72
2021/09/17 03:47:08;;;;;;;10.15;7.15;;;13.90;99.90;;;;;;5070857;28;20033;-72
2021/09/17 03:49:34;;;;;;;11.35;6.68;;;14.00;99.90;;;;;;5070851;28;20035;-72
2021/09/17 03:52:00;;;;;;;10.13;7.25;;;13.90;99.90;;;;;;5022472;28;20042;-72
2021/09/17 03:54:27;;;;;;;12.10;6.60;;;13.80;99.90;;;;;;5070449;28;20419;-74
2021/09/17 03:56:57;;;;;;;8.00;6.32;;;14.00;99.90;;;;;;5078272;28;20059;-71
2021/09/17 03:59:23;;;;;;;11.93;7.07;;;13.90;99.90;;;;;;5090720;28;20064;-75
2021/09/17 04:01:49;;;;;;;10.02;6.88;;;14.00;99.90;;;;;;5083721;28;20016;-74
2021/09/17 04:04:15;;;;;;;8.65;6.07;;;13.90;99.90;;;;;;5091926;28;20485;-73
2021/09/17 04:06:42;;;;;;;11.10;7.53;;;13.90;99.90;;;;;;5090380;28;20059;-73
2021/09/17 04:09:10;;;;;;;7.03;5.47;;;14.00;99.90;;;;;;5092242;28;20036;-72
2021/09/17 04:11:36;;;;;;;11.75;7.35;;;14.10;99.90;;;;;;5091518;28;20489;-73
2021/09/17 04:14:02;;;;;;;10.13;5.72;;;14.20;99.90;;;;;;5090791;28;20484;-73
2021/09/17 04:16:28;;;;;;;10.38;6.35;;;14.10;99.90;;;;;;5090432;28;20463;-72
2021/09/17 04:18:54;;;;;;;9.13;6.10;;;14.10;99.90;;;;;;5091640;28;20067;-71
2021/09/17 04:21:20;;;;;;;8.27;5.93;;;14.30;99.90;;;;;;5091851;28;20028;-73
2021/09/17 04:23:45;;;;;;;7.70;5.53;;;14.30;99.90;;;;;;5092024;28;20032;-71
2021/09/17 04:26:11;;;;;;;8.70;6.22;;;14.40;99.90;;;;;;5090610;28;20062;-72
2021/09/17 04:28:37;;;;;;;12.10;6.75;;;14.50;99.90;;;;;;5090334;28;20036;-72
2021/09/17 04:31:03;;;;;;;16.77;8.30;;;14.50;99.90;;;;;;5091924;28;20369;-72
2021/09/17 04:33:28;;;;;;;13.35;7.57;;;14.30;99.90;;;;;;5092787;28;20039;-73
2021/09/17 04:35:54;;;;;;;12.75;8.95;;;14.60;99.90;;;;;;5094102;28;20535;-76
2021/09/17 04:38:20;;;;;;;10.05;6.60;;;14.50;99.90;;;;;;5095412;28;20036;-74
2021/09/17 04:40:46;;;;;;;11.55;6.55;;;14.70;99.90;;;;;;5095292;28;20427;-76
2021/09/17 04:43:12;;;;;;;9.73;6.20;;;14.70;99.90;;;;;;5095416;28;20438;-73
2021/09/17 04:45:38;;;;;;;13.65;7.10;;;14.80;99.90;;;;;;5095042;28;20115;-76
2021/09/17 04:48:13;;;;;;;12.32;6.85;;;14.80;99.90;;;;;;5094210;28;20043;-73
2021/09/17 04:50:39;;;;;;;13.60;6.82;;;14.60;99.90;;;;;;5094974;28;20039;-76
2021/09/17 04:53:07;;;;;;;12.98;7.55;;;14.60;99.90;;;;;;5095201;28;20054;-76
2021/09/17 04:55:33;;;;;;;11.43;6.45;;;14.60;99.90;;;;;;5090660;28;20377;-74
2021/09/17 04:58:04;;;;;;;10.88;6.75;;;14.50;99.90;;;;;;5056794;28;20037;-75
2021/09/17 05:00:31;;;;;;;11.05;7.07;;;14.50;99.90;;;;;;5074536;28;20052;-73
2021/09/17 05:02:57;;;;;;;13.40;7.53;;;14.60;99.90;;;;;;5074630;28;20040;-80
2021/09/17 05:05:24;;;;;;;14.77;8.23;;;14.60;99.90;;;;;;5074530;28;20053;-70
2021/09/17 05:07:49;;;;;;;16.23;8.73;;;14.80;99.90;;;;;;5045122;28;20582;-70
2021/09/17 05:10:15;;;;;;;9.57;6.78;;;14.90;99.90;;;;;;5073432;28;20028;-70
2021/09/17 05:12:41;;;;;;;12.05;7.90;;;14.90;99.90;;;;;;5074140;28;20036;-70
2021/09/17 05:15:08;;;;;;;15.32;7.65;;;14.60;99.90;;;;;;5073056;28;20039;-70
2021/09/17 05:17:34;;;;;;;16.17;8.18;;;14.60;99.90;;;;;;5072963;28;20036;-70
2021/09/17 05:20:00;;;;;;;12.30;7.72;;;14.70;99.90;;;;;;5074115;28;20027;-70
2021/09/17 05:22:26;;;;;;;12.30;7.50;;;14.60;99.90;;;;;;5056572;28;20111;-71
2021/09/17 05:24:53;;;;;;;11.27;7.30;;;14.60;99.90;;;;;;5074164;28;20028;-71
2021/09/17 05:27:19;;;;;;;14.35;9.20;;;14.80;99.90;;;;;;5091329;28;20111;-70
2021/09/17 05:29:45;;;;;;;11.85;7.53;;;15.20;99.90;;;;;;5094383;28;20385;-70
2021/09/17 05:32:14;;;;;;;11.63;6.75;;;15.20;99.90;;;;;;5091231;28;20027;-71
2021/09/17 05:34:40;;;;;;;10.48;6.82;;;14.90;99.90;;;;;;5076099;28;20116;-76
2021/09/17 05:37:06;;;;;;;10.32;7.03;;;14.60;99.90;;;;;;5094386;28;20495;-75
2021/09/17 05:39:32;;;;;;;16.60;7.63;;;14.70;99.90;;;;;;5094302;28;20028;-76
2021/09/17 05:41:58;;;;;;;14.75;7.43;;;14.70;99.90;;;;;;5085370;28;20373;-73
2021/09/17 05:44:24;;;;;;;12.60;6.80;;;14.70;99.90;;;;;;5074149;28;20040;-74
2021/09/17 05:46:49;;;;;;;11.30;7.55;;;14.80;99.90;;;;;;5073229;28;20477;-73
2021/09/17 05:49:15;;;;;;;16.83;8.18;;;14.60;99.90;;;;;;5073714;28;20032;-74
2021/09/17 05:51:41;;;;;;;14.30;8.27;;;14.40;99.90;;;;;;5076723;28;20508;-74
2021/09/17 05:54:07;;;;;;;15.38;7.70;;;14.40;99.90;;;;;;5073529;28;20090;-74
2021/09/17 05:56:33;;;;;;;12.60;7.63;;;14.30;99.90;;;;;;5073447;28;20067;-74
2021/09/17 05:58:59;;;;;;;11.30;7.05;;;14.40;99.90;;;;;;5088956;28;20460;-74
2021/09/17 06:01:25;;;;;;;10.90;7.32;;;14.50;99.90;;;;;;5073360;28;20111;-74
2021/09/17 06:03:50;;;;;;;14.05;8.43;;;14.40;99.90;;;;;;5073203;28;20094;-74
2021/09/17 06:06:18;;;;;;;11.93;8.13;;;14.40;99.90;;;;;;5074353;28;20094;-74
2021/09/17 06:08:44;;;;;;;12.68;8.70;;;14.30;99.90;;;;;;5092681;28;20036;-74
2021/09/17 06:11:10;;;;;;;11.73;9.05;;;14.40;99.90;;;;;;5092156;28;20476;-73
2021/09/17 06:13:36;;;;;;;17.17;9.15;;;14.30;99.90;;;;;;5092488;28;20036;-73
2021/09/17 06:16:02;;;;;;;15.35;9.25;;;14.20;99.90;;;;;;5091890;28;20139;-73
2021/09/17 06:18:28;;;;;;;12.38;9.50;;;14.40;99.90;;;;;;5093491;28;20038;-73
2021/09/17 06:20:54;;;;;;;14.82;9.30;;;14.30;99.90;;;;;;5093211;28;20032;-74
2021/09/17 06:23:19;;;;;;;19.38;10.65;;;14.30;99.90;;;;;;5093086;28;20035;-73
2021/09/17 06:25:45;;;;;;;17.60;10.07;;;14.30;99.90;;;;;;5108965;28;20032;-74
2021/09/17 06:28:11;;;;;;;17.88;10.25;;;14.30;99.90;;;;;;5093314;28;20070;-74
2021/09/17 06:30:37;;;;;;;18.00;9.70;;;14.30;99.90;;;;;;5093725;28;20399;-73
2021/09/17 06:33:03;;;;;;;14.07;10.40;;;14.30;99.90;;;;;;5092150;28;20036;-74
2021/09/17 06:35:29;;;;;;;14.70;9.60;;;14.40;99.90;;;;;;5093179;28;20544;-74
2021/09/17 06:37:55;;;;;;;16.55;10.68;;;14.40;99.90;;;;;;5093073;28;20032;-73
2021/09/17 06:40:26;;;;;;;16.25;10.77;;;14.40;99.90;;;;;;5091879;28;20035;-73
2021/09/17 06:42:53;;;;;;;14.77;10.63;;;14.50;99.90;;;;;;5093101;28;20050;-73
2021/09/17 06:45:18;;;;;;;20.90;10.98;;;14.60;99.90;;;;;;5092849;28;20028;-73
2021/09/17 06:47:54;;;;;;;18.38;10.35;;;14.70;99.90;;;;;;5092933;28;20496;-74
2021/09/17 06:50:23;;;;;;;17.42;9.57;;;14.80;99.90;;;;;;5091627;28;20039;-73
2021/09/17 06:52:52;;;;;;;15.63;10.63;;;14.80;99.90;;;;;;5092068;28;20440;-73
2021/09/17 06:55:26;;;;;;;16.73;9.88;;;14.80;99.90;;;;;;5093062;28;20035;-74
2021/09/17 06:58:02;;;;;;;17.63;10.57;;;14.90;99.90;;;;;;5090272;28;20024;-74
2021/09/17 07:00:31;;;;;;;17.58;10.90;;;15.00;99.90;;;;;;5092940;28;20049;-75
2021/09/17 07:02:57;;;;;;;17.90;11.20;;;15.10;99.90;;;;;;5091602;28;20028;-70
2021/09/17 07:05:25;;;;;;;18.55;10.88;;;15.10;99.90;;;;;;5091651;28;20029;-69
2021/09/17 07:07:51;;;;;;;18.00;11.75;;;15.10;99.90;;;;;;5091152;28;20538;-69
2021/09/17 07:10:18;;;;;;;20.05;12.27;;;15.30;99.90;;;;;;5091053;28;20435;-69
2021/09/17 07:12:45;;;;;;;16.45;12.18;;;15.30;99.90;;;;;;5092293;28;20038;-68
2021/09/17 07:15:12;;;;;;;26.10;14.43;;;15.30;99.90;;;;;;5091142;28;20085;-68
2021/09/17 07:17:40;;;;;;;23.35;14.88;;;15.30;99.90;;;;;;5091249;28;20598;-68
2021/09/17 07:20:07;;;;;;;23.05;15.23;;;15.40;99.90;;;;;;5092345;28;20032;-69
2021/09/17 07:22:33;;;;;;;22.77;14.57;;;15.40;99.90;;;;;;5091161;28;20481;-69
2021/09/17 07:24:59;;;;;;;22.13;13.88;;;15.50;99.90;;;;;;5091362;28;20024;-68
2021/09/17 07:27:24;;;;;;;20.42;13.35;;;15.60;99.90;;;;;;5092221;28;20032;-69
2021/09/17 07:29:50;;;;;;;19.05;13.27;;;15.60;99.90;;;;;;5091196;28;20085;-68
2021/09/17 07:32:16;;;;;;;19.65;12.95;;;15.70;99.90;;;;;;5092250;28;20067;-69
2021/09/17 07:34:42;;;;;;;19.77;13.10;;;15.90;99.90;;;;;;5091227;28;20376;-69
2021/09/17 07:37:08;;;;;;;18.42;12.25;;;16.10;99.90;;;;;;5091028;28;20032;-69
2021/09/17 07:39:34;;;;;;;19.65;12.95;;;16.10;99.90;;;;;;5092354;28;20423;-70
2021/09/17 07:42:00;;;;;;;18.02;12.05;;;16.10;99.90;;;;;;5090919;28;20028;-68
2021/09/17 07:44:26;;;;;;;19.70;11.45;;;16.20;99.90;;;;;;5090850;28;20032;-69
2021/09/17 07:46:52;;;;;;;27.73;11.98;;;16.10;99.90;;;;;;5091097;28;20384;-69
2021/09/17 07:49:18;;;;;;;17.33;11.30;;;16.10;99.90;;;;;;5092085;28;20032;-68
2021/09/17 07:51:44;;;;;;;19.42;11.95;;;16.30;99.90;;;;;;5092349;28;20040;-70
2021/09/17 07:54:09;;;;;;;19.38;11.98;;;16.40;99.90;;;;;;5091939;28;20097;-68
2021/09/17 07:56:35;;;;;;;15.52;11.25;;;16.50;99.90;;;;;;5092196;28;20043;-68
2021/09/17 07:59:01;;;;;;;14.13;10.52;;;16.50;99.90;;;;;;5088574;28;20035;-68
2021/09/17 08:01:27;;;;;;;18.05;11.65;;;16.40;99.90;;;;;;5092034;28;20106;-69
2021/09/17 08:03:53;;;;;;;16.15;11.50;;;16.50;99.90;;;;;;5092214;28;20128;-68
2021/09/17 08:06:21;;;;;;;17.38;11.05;;;16.60;99.90;;;;;;5089947;28;20028;-68
2021/09/17 08:08:47;;;;;;;17.75;11.80;;;16.60;99.90;;;;;;5088490;28;20048;-68
2021/09/17 08:11:13;;;;;;;15.82;10.65;;;16.70;99.90;;;;;;5074203;28;20028;-68
2021/09/17 08:13:38;;;;;;;16.00;10.75;;;16.80;99.90;;;;;;5074402;28;20043;-67
2021/09/17 08:16:04;;;;;;;19.77;11.40;;;16.80;99.90;;;;;;5074506;28;20033;-68
2021/09/17 08:18:30;;;;;;;14.70;10.43;;;16.80;99.90;;;;;;5075345;28;20089;-68
2021/09/17 08:20:58;;;;;;;16.50;10.65;;;16.90;99.90;;;;;;5075249;28;20377;-68
2021/09/17 08:23:25;;;;;;;16.80;11.10;;;17.00;99.90;;;;;;5075286;28;20067;-68
2021/09/17 08:25:54;;;;;;;17.23;9.30;;;17.10;99.90;;;;;;5075488;28;20037;-68
2021/09/17 08:28:22;;;;;;;12.88;9.38;;;17.10;99.90;;;;;;5074150;28;20032;-66
2021/09/17 08:30:48;;;;;;;15.40;9.48;;;17.30;99.90;;;;;;5074143;28;20112;-68
2021/09/17 08:33:14;;;;;;;12.02;8.88;;;17.60;99.90;;;;;;5075130;28;20044;-69
2021/09/17 08:35:40;;;;;;;13.80;8.75;;;17.70;99.90;;;;;;5074991;28;20025;-68
2021/09/17 08:38:06;;;;;;;13.05;9.57;;;17.80;99.90;;;;;;5073648;28;20063;-68
2021/09/17 08:40:32;;;;;;;16.63;8.70;;;18.00;99.90;;;;;;5075268;28;20125;-68
2021/09/17 08:43:00;;;;;;;14.20;8.38;;;18.10;99.90;;;;;;5074653;28;20090;-69
2021/09/17 08:45:30;;;;;;;16.05;9.73;;;18.40;99.90;;;;;;5074713;28;20025;-68
2021/09/17 08:48:00;;;;;;;16.35;10.23;;;18.30;99.90;;;;;;5074736;28;20036;-68
2021/09/17 08:50:27;;;;;;;15.85;8.75;;;18.60;99.90;;;;;;5073445;28;20115;-68
2021/09/17 08:52:53;;;;;;;14.73;9.57;;;18.50;99.90;;;;;;5075046;28;20044;-68
2021/09/17 08:55:19;;;;;;;13.50;8.88;;;18.80;99.90;;;;;;5073784;28;20028;-67
2021/09/17 08:57:46;;;;;;;15.15;9.73;;;18.80;99.90;;;;;;5073727;28;20071;-68
2021/09/17 09:00:27;;;;;;;15.95;9.45;;;19.00;99.90;;;;;;5074926;28;20545;-68
2021/09/17 09:02:55;;;;;;;16.50;9.20;;;19.10;99.90;;;;;;5074919;28;20389;-68
2021/09/17 09:05:34;;;;;;;17.67;8.98;;;18.90;99.90;;;;;;5073454;28;20025;-68
2021/09/17 09:08:02;;;;;;;15.35;8.85;;;18.90;99.90;;;;;;5074369;28;20032;-68
2021/09/17 09:10:28;;;;;;;14.30;8.40;;;18.90;99.90;;;;;;5074520;28;20033;-69
2021/09/17 09:12:58;;;;;;;11.35;8.02;;;19.10;99.90;;;;;;5073049;28;20526;-68
2021/09/17 09:15:29;;;;;;;11.50;7.43;;;19.10;99.90;;;;;;5074111;28;20060;-69
2021/09/17 09:18:11;;;;;;;12.23;7.15;;;19.20;99.90;;;;;;5073955;28;20131;-69
2021/09/17 09:20:49;;;;;;;16.70;7.75;;;19.30;99.90;;;;;;5073050;28;20102;-68
2021/09/17 09:23:19;;;;;;;12.23;7.10;;;19.40;99.90;;;;;;5072842;28;20543;-68
2021/09/17 09:26:01;;;;;;;10.40;6.53;;;19.60;99.90;;;;;;5074318;28;20029;-68
2021/09/17 09:28:33;;;;;;;13.07;7.25;;;19.70;99.90;;;;;;5074352;28;20032;-68
2021/09/17 09:31:14;;;;;;;10.15;7.15;;;19.70;99.90;;;;;;5073894;28;20040;-69
2021/09/17 09:33:44;;;;;;;;;;;19.70;99.90;;;;;;5074823;28;20025;-69
2021/09/17 09:36:15;;;;;;;8.85;5.82;;;19.70;99.90;;;;;;5074107;28;20572;-68
2021/09/17 09:38:46;;;;;;;12.20;6.25;;;19.90;99.90;;;;;;5073001;28;20071;-69
2021/09/17 09:41:35;;;;;;;6.70;4.28;;;20.00;99.90;;;;;;5072450;28;20506;-69
2021/09/17 09:44:16;;;;;;;9.80;4.65;;;20.10;99.90;;;;;;5073595;28;20044;-68
2021/09/17 09:46:45;;;;;;;11.18;4.88;;;20.30;99.90;;;;;;5073831;28;20032;-67
2021/09/17 09:49:22;;;;;;;6.13;3.83;;;20.30;99.90;;;;;;5072754;28;20052;-68
2021/09/17 09:51:57;;;;;;;6.80;3.78;;;20.40;99.90;;;;;;5073934;28;20036;-67
2021/09/17 09:54:31;;;;;;;7.15;2.97;;;20.60;99.90;;;;;;5072533;28;20032;-68
2021/09/17 09:56:59;;;;;;;7.03;3.10;;;20.70;99.90;;;;;;5073704;28;20497;-68
2021/09/17 09:59:28;;;;;;;5.97;3.20;;;20.80;99.90;;;;;;5073818;28;20036;-68
2021/09/17 10:01:56;;;;;;;10.43;4.60;;;21.10;99.90;;;;;;5087676;28;20024;-68
2021/09/17 10:04:25;;;;;;;9.18;5.50;;;21.20;99.90;;;;;;5085735;28;20518;-68
2021/09/17 10:07:08;;;;;;;10.23;5.63;;;21.20;99.90;;;;;;5074283;28;20041;-69
2021/09/17 10:09:39;;;;;;;11.98;5.15;;;21.50;99.90;;;;;;5072321;28;20083;-69
2021/09/17 10:12:09;;;;;;;;;;;21.50;99.90;;;;;;5077171;28;20453;-69
2021/09/17 10:14:37;;;;;;;12.23;5.80;;;21.40;99.90;;;;;;5073593;28;20011;-69
2021/09/17 10:17:07;;;;;;;9.38;4.63;;;21.30;99.90;;;;;;5072823;28;20556;-69
2021/09/17 10:19:35;;;;;;;7.90;4.03;;;21.80;99.90;;;;;;5072121;28;20041;-68
2021/09/17 10:22:02;;;;;;;9.98;4.97;;;21.70;99.90;;;;;;5071784;28;20572;-70
2021/09/17 10:24:33;;;;;;;7.78;3.88;;;21.80;99.90;;;;;;5073362;28;20051;-68
2021/09/17 10:27:02;;;;;;;;;;;21.30;99.90;;;;;;5073474;28;20492;-66
2021/09/17 10:29:37;;;;;;;6.07;3.90;;;21.40;99.90;;;;;;5072407;28;19916;-68
2021/09/17 10:32:26;;;;;;;5.68;3.65;;;20.90;99.90;;;;;;5072640;28;20144;-68
2021/09/17 10:35:12;;;;;;;8.55;4.10;;;20.60;99.90;;;;;;5071719;28;20028;-70
2021/09/17 10:37:57;;;;;;;9.13;5.03;;;20.30;99.90;;;;;;5072913;28;20041;-69
2021/09/17 10:41:04;;;;;;;6.28;4.00;;;20.10;99.90;;;;;;5072630;28;20037;-75
2021/09/17 10:43:57;;;;;;;7.90;4.28;;;20.10;99.90;;;;;;5071502;28;20047;-77
2021/09/17 10:46:23;;;;;;;7.80;4.22;;;20.10;99.90;;;;;;5072179;28;20033;-75
2021/09/17 10:48:51;;;;;;;7.28;4.25;;;20.40;99.90;;;;;;5072380;28;20035;-75
2021/09/17 10:51:41;;;;;;;6.88;4.05;;;20.30;99.90;;;;;;5072411;28;20036;-75
2021/09/17 10:54:12;;;;;;;16.35;4.00;;;20.20;99.90;;;;;;5071152;28;20037;-76
2021/09/17 10:56:50;;;;;;;9.85;4.60;;;20.20;99.90;;;;;;5072429;28;20032;-76
2021/09/17 10:59:28;;;;;;;5.75;3.63;;;20.20;99.90;;;;;;5072419;28;20120;-75
2021/09/17 11:02:06;;;;;;;8.27;4.22;;;20.00;99.90;;;;;;5072105;28;20416;-75
2021/09/17 11:04:46;;;;;;;12.05;4.90;;;20.00;99.90;;;;;;5071287;28;20043;-75
2021/09/17 11:07:17;;;;;;;7.90;4.63;;;19.70;99.90;;;;;;5072222;28;20024;-75
2021/09/17 11:09:55;;;;;;;6.60;3.92;;;19.60;99.90;;;;;;5072209;28;20036;-75
2021/09/17 11:12:38;;;;;;;10.95;4.90;;;19.70;99.90;;;;;;5071879;28;20107;-76
2021/09/17 11:15:15;;;;;;;7.05;4.10;;;19.90;99.90;;;;;;5071919;28;20036;-75
2021/09/17 11:17:48;;;;;;;7.03;3.65;;;19.90;99.90;;;;;;5072156;28;20063;-76
2021/09/17 11:20:22;;;;;;;9.50;4.30;;;19.90;99.90;;;;;;5071156;28;20037;-77
2021/09/17 11:23:04;;;;;;;5.55;3.13;;;20.10;99.90;;;;;;5071971;28;20039;-75
2021/09/17 11:25:42;;;;;;;4.18;2.78;;;20.10;99.90;;;;;;5070954;28;20025;-76
2021/09/17 11:28:28;;;;;;;6.78;2.60;;;19.90;99.90;;;;;;5054087;28;20086;-75
2021/09/17 11:31:17;;;;;;;4.95;2.42;;;19.90;99.90;;;;;;5072186;28;20108;-76
2021/09/17 11:33:53;;;;;;;5.18;2.95;;;19.90;99.90;;;;;;5070862;28;20039;-77
2021/09/17 11:36:43;;;;;;;4.78;2.63;;;20.20;99.90;;;;;;5070700;28;20032;-76
2021/09/17 11:39:34;;;;;;;5.35;2.53;;;20.20;99.90;;;;;;5070783;28;20133;-75
2021/09/17 11:42:10;;;;;;;7.90;2.80;;;20.50;99.90;;;;;;5072196;28;20040;-75
2021/09/17 11:44:44;;;;;;;6.03;3.13;;;20.80;99.90;;;;;;5071701;28;20024;-75
2021/09/17 11:47:12;;;;;;;8.52;3.10;;;21.00;99.90;;;;;;5071812;28;20033;-75
2021/09/17 11:49:42;;;;;;;5.43;2.50;;;21.60;99.90;;;;;;5070700;28;20021;-74
2021/09/17 11:52:17;;;;;;;3.60;2.20;;;22.20;99.90;;;;;;5070530;28;20048;-74
2021/09/17 11:55:04;;;;;;;4.25;2.40;;;23.00;99.90;;;;;;5071790;28;20028;-75
2021/09/17 11:57:32;;;;;;;4.85;2.50;;;23.30;99.10;;;;;;5073430;28;20028;-76
2021/09/17 11:59:59;;;;;;;6.20;2.97;;;24.10;98.70;;;;;;5075596;28;20024;-75
2021/09/17 12:02:26;;;;;;;4.75;2.65;;;23.50;98.70;;;;;;5082920;28;20036;-74
2021/09/17 12:04:58;;;;;;;6.82;3.00;;;23.10;98.50;;;;;;5077236;28;20028;-75
2021/09/17 12:07:26;;;;;;;8.60;2.67;;;23.50;98.80;;;;;;5089935;28;20036;-76
2021/09/17 12:09:53;;;;;;;4.65;2.45;;;24.60;96.50;;;;;;5088180;28;20028;-77
2021/09/17 12:12:29;;;;;;;5.57;2.63;;;25.10;96.10;;;;;;5090202;28;20032;-76
2021/09/17 12:14:55;;;;;;;6.32;2.80;;;24.80;96.30;;;;;;5082751;28;20036;-74
2021/09/17 12:17:23;;;;;;;6.00;2.85;;;25.70;94.40;;;;;;5086748;28;20028;-76
2021/09/17 12:20:07;;;;;;;7.10;3.28;;;25.30;94.40;;;;;;5091178;28;20130;-75
2021/09/17 12:22:39;;;;;;;5.57;2.55;;;25.30;94.60;;;;;;5090874;28;20137;-77
2021/09/17 12:25:11;;;;;;;7.00;2.80;;;24.90;94.70;;;;;;5092566;28;20032;-76
2021/09/17 12:27:58;;;;;;;4.82;2.10;;;23.90;96.00;;;;;;5092836;28;20539;-76
2021/09/17 12:30:30;;;;;;;3.50;2.08;;;24.30;95.60;;;;;;5093234;28;20078;-76
2021/09/17 12:33:18;;;;;;;6.88;2.63;;;24.90;95.10;;;;;;5091686;28;20031;-77
2021/09/17 12:35:47;;;;;;;4.10;2.08;;;24.20;95.40;;;;;;5092187;28;20031;-76
2021/09/17 12:38:16;;;;;;;6.22;2.47;;;22.70;97.50;;;;;;5091776;28;20360;-77
2021/09/17 12:40:56;;;;;;;4.78;2.40;;;22.50;97.80;;;;;;5093692;28;20384;-77
2021/09/17 12:43:31;;;;;;;3.85;2.60;;;22.30;98.50;;;;;;5074837;28;20091;-78
2021/09/17 12:46:12;;;;;;;5.07;2.45;;;22.50;97.90;;;;;;5091961;28;20040;-77
2021/09/17 12:48:45;;;;;;;4.07;2.28;;;22.40;98.30;;;;;;5090881;28;20044;-78